createdAt,value
2022-11-27T00:00:59.383Z,0.00
2022-11-27T00:01:58.342Z,0.00
2022-11-27T00:02:58.237Z,0.00
2022-11-27T00:03:58.408Z,0.00
2022-11-27T00:04:58.044Z,0.00
2022-11-27T00:05:58.162Z,0.00
2022-11-27T00:06:58.173Z,0.00
2022-11-27T00:07:57.942Z,0.00
2022-11-27T00:08:59.007Z,0.00
2022-11-27T00:09:58.037Z,0.00
2022-11-27T00:10:57.994Z,0.00
2022-11-27T00:11:57.720Z,0.00
2022-11-27T00:12:57.669Z,0.00
2022-11-27T00:13:57.809Z,0.00
2022-11-27T00:14:57.580Z,0.00
2022-11-27T00:15:58.680Z,0.00
2022-11-27T00:16:57.482Z,0.00
2022-11-27T00:17:57.629Z,0.00
2022-11-27T00:18:57.389Z,0.00
2022-11-27T00:19:57.650Z,0.00
2022-11-27T00:20:57.298Z,0.00
2022-11-27T00:21:57.492Z,0.00
2022-11-27T00:22:57.200Z,0.00
2022-11-27T00:23:57.266Z,0.00
2022-11-27T00:24:57.149Z,0.00
2022-11-27T00:25:57.311Z,0.00
2022-11-27T00:26:57.137Z,0.00
2022-11-27T00:27:57.094Z,0.00
2022-11-27T00:28:56.917Z,0.00
2022-11-27T00:29:57.106Z,0.00
2022-11-27T00:30:56.947Z,0.00
2022-11-27T00:31:56.958Z,0.00
2022-11-27T00:32:56.936Z,0.00
2022-11-27T00:33:56.684Z,0.00
2022-11-27T00:34:56.736Z,0.00
2022-11-27T00:35:56.598Z,0.00
2022-11-27T00:36:56.545Z,0.00
2022-11-27T00:37:56.764Z,0.00
2022-11-27T00:38:56.457Z,0.00
2022-11-27T00:39:56.567Z,0.00
2022-11-27T00:40:56.357Z,0.00
2022-11-27T00:41:57.396Z,0.00
2022-11-27T00:42:56.264Z,0.00
2022-11-27T00:43:57.419Z,0.00
2022-11-27T00:44:56.185Z,0.00
2022-11-27T00:45:56.243Z,0.00
2022-11-27T00:46:56.172Z,0.00
2022-11-27T00:47:56.212Z,0.00
2022-11-27T00:48:56.069Z,0.00
2022-11-27T00:49:56.028Z,0.00
2022-11-27T00:50:55.884Z,0.00
2022-11-27T00:51:56.038Z,0.00
2022-11-27T00:52:55.794Z,0.00
2022-11-27T00:53:55.843Z,0.00
2022-11-27T00:54:55.906Z,0.00
2022-11-27T00:55:55.863Z,0.00
2022-11-27T00:56:55.649Z,0.00
2022-11-27T00:57:55.697Z,0.00
2022-11-27T00:58:55.514Z,0.00
2022-11-27T00:59:56.304Z,0.00
2022-11-27T01:00:55.425Z,0.00
2022-11-27T01:01:55.604Z,0.00
2022-11-27T01:02:55.688Z,0.00
2022-11-27T01:03:55.530Z,0.00
2022-11-27T01:04:55.231Z,0.00
2022-11-27T01:05:55.184Z,0.00
2022-11-27T01:06:55.143Z,0.00
2022-11-27T01:07:55.359Z,0.00
2022-11-27T01:08:55.047Z,0.00
2022-11-27T01:09:55.172Z,0.00
2022-11-27T01:10:55.254Z,0.00
2022-11-27T01:11:54.902Z,0.00
2022-11-27T01:12:54.857Z,0.00
2022-11-27T01:13:55.174Z,0.00
2022-11-27T01:14:54.789Z,0.00
2022-11-27T01:15:58.474Z,0.00
2022-11-27T01:16:54.673Z,0.00
2022-11-27T01:17:54.651Z,0.00
2022-11-27T01:18:54.595Z,0.00
2022-11-27T01:19:54.609Z,0.00
2022-11-27T01:20:54.516Z,0.00
2022-11-27T01:21:54.625Z,0.00
2022-11-27T01:22:54.390Z,0.00
2022-11-27T01:23:54.559Z,0.00
2022-11-27T01:24:54.349Z,0.00
2022-11-27T01:25:54.453Z,0.00
2022-11-27T01:26:54.295Z,0.00
2022-11-27T01:27:54.251Z,0.00
2022-11-27T01:28:54.111Z,0.00
2022-11-27T01:29:54.096Z,0.00
2022-11-27T01:30:54.064Z,0.00
2022-11-27T01:31:54.082Z,0.00
2022-11-27T01:32:53.924Z,0.00
2022-11-27T01:33:54.094Z,0.00
2022-11-27T01:34:54.483Z,0.00
2022-11-27T01:35:53.991Z,0.00
2022-11-27T01:36:53.733Z,0.00
2022-11-27T01:37:53.923Z,0.00
2022-11-27T01:38:53.643Z,0.00
2022-11-27T01:39:53.732Z,0.00
2022-11-27T01:40:53.550Z,0.00
2022-11-27T01:41:53.506Z,0.00
2022-11-27T01:42:53.590Z,0.00
2022-11-27T01:43:53.556Z,0.00
2022-11-27T01:44:53.382Z,0.00
2022-11-27T01:45:53.573Z,0.00
2022-11-27T01:46:53.339Z,0.00
2022-11-27T01:47:53.222Z,0.00
2022-11-27T01:48:53.385Z,0.00
2022-11-27T01:49:53.129Z,0.00
2022-11-27T01:50:53.194Z,0.00
2022-11-27T01:51:53.041Z,0.00
2022-11-27T01:52:53.218Z,0.00
2022-11-27T01:53:52.955Z,0.00
2022-11-27T01:54:53.227Z,0.00
2022-11-27T01:55:52.851Z,0.00
2022-11-27T01:56:53.042Z,0.00
2022-11-27T01:57:52.755Z,0.00
2022-11-27T01:58:52.846Z,0.00
2022-11-27T01:59:52.657Z,0.00
2022-11-27T02:00:52.858Z,0.00
2022-11-27T02:01:52.613Z,0.00
2022-11-27T02:02:52.728Z,0.00
2022-11-27T02:03:52.477Z,0.00
2022-11-27T02:04:52.689Z,0.00
2022-11-27T02:05:52.379Z,0.00
2022-11-27T02:06:52.692Z,0.00
2022-11-27T02:07:52.363Z,0.00
2022-11-27T02:08:52.518Z,0.00
2022-11-27T02:09:52.193Z,0.00
2022-11-27T02:10:52.324Z,0.00
2022-11-27T02:11:52.099Z,0.00
2022-11-27T02:12:52.336Z,0.00
2022-11-27T02:13:52.004Z,0.00
2022-11-27T02:14:54.192Z,0.00
2022-11-27T02:15:51.951Z,0.00
2022-11-27T02:16:51.922Z,0.00
2022-11-27T02:17:51.828Z,0.00
2022-11-27T02:18:53.010Z,0.00
2022-11-27T02:19:51.723Z,0.00
2022-11-27T02:20:51.772Z,0.00
2022-11-27T02:21:51.647Z,0.00
2022-11-27T02:22:51.836Z,0.00
2022-11-27T02:23:51.539Z,0.00
2022-11-27T02:24:51.602Z,0.00
2022-11-27T02:25:51.450Z,0.00
2022-11-27T02:26:51.622Z,0.00
2022-11-27T02:27:51.354Z,0.00
2022-11-27T02:28:51.337Z,0.00
2022-11-27T02:29:51.432Z,0.00
2022-11-27T02:30:51.253Z,0.00
2022-11-27T02:31:52.267Z,0.00
2022-11-27T02:32:51.122Z,0.00
2022-11-27T02:33:51.255Z,0.00
2022-11-27T02:34:51.465Z,0.00
2022-11-27T02:35:50.976Z,0.00
2022-11-27T02:36:52.095Z,0.00
2022-11-27T02:37:50.931Z,0.00
2022-11-27T02:38:51.090Z,0.00
2022-11-27T02:39:50.795Z,0.00
2022-11-27T02:40:50.741Z,0.00
2022-11-27T02:41:50.700Z,0.00
2022-11-27T02:42:50.910Z,0.00
2022-11-27T02:43:50.763Z,0.00
2022-11-27T02:44:50.720Z,0.00
2022-11-27T02:45:50.520Z,0.00
2022-11-27T02:46:50.545Z,0.00
2022-11-27T02:47:50.416Z,0.00
2022-11-27T02:48:50.557Z,0.00
2022-11-27T02:49:50.320Z,0.00
2022-11-27T02:50:50.352Z,0.00
2022-11-27T02:51:50.228Z,0.00
2022-11-27T02:52:50.210Z,0.00
2022-11-27T02:53:50.134Z,0.00
2022-11-27T02:54:51.363Z,0.00
2022-11-27T02:55:50.039Z,0.00
2022-11-27T02:56:50.195Z,0.00
2022-11-27T02:57:49.950Z,0.00
2022-11-27T02:58:49.899Z,0.00
2022-11-27T02:59:49.853Z,0.00
2022-11-27T03:00:50.021Z,0.00
2022-11-27T03:01:49.804Z,0.00
2022-11-27T03:02:49.884Z,0.00
2022-11-27T03:03:49.672Z,0.00
2022-11-27T03:04:49.616Z,0.00
2022-11-27T03:05:49.595Z,0.00
2022-11-27T03:06:49.858Z,0.00
2022-11-27T03:07:49.557Z,0.00
2022-11-27T03:08:49.677Z,0.00
2022-11-27T03:09:49.402Z,0.00
2022-11-27T03:10:49.383Z,0.00
2022-11-27T03:11:49.486Z,0.00
2022-11-27T03:12:49.241Z,0.00
2022-11-27T03:13:49.294Z,0.00
2022-11-27T03:14:49.151Z,0.00
2022-11-27T03:15:49.416Z,0.00
2022-11-27T03:16:49.159Z,0.00
2022-11-27T03:17:49.117Z,0.00
2022-11-27T03:18:48.958Z,0.00
2022-11-27T03:19:49.130Z,0.00
2022-11-27T03:20:48.878Z,0.00
2022-11-27T03:21:48.941Z,0.00
2022-11-27T03:22:48.777Z,0.00
2022-11-27T03:23:49.982Z,0.00
2022-11-27T03:24:48.671Z,0.00
2022-11-27T03:25:50.826Z,0.00
2022-11-27T03:26:48.627Z,0.00
2022-11-27T03:27:48.990Z,0.00
2022-11-27T03:28:48.488Z,0.00
2022-11-27T03:29:48.593Z,0.00
2022-11-27T03:30:48.492Z,0.00
2022-11-27T03:31:48.692Z,0.00
2022-11-27T03:32:48.295Z,0.00
2022-11-27T03:33:48.278Z,0.00
2022-11-27T03:34:48.211Z,0.00
2022-11-27T03:35:48.432Z,0.00
2022-11-27T03:36:48.213Z,0.00
2022-11-27T03:37:48.243Z,0.00
2022-11-27T03:38:48.017Z,0.00
2022-11-27T03:39:48.104Z,0.00
2022-11-27T03:40:47.923Z,0.00
2022-11-27T03:41:48.068Z,0.00
2022-11-27T03:42:47.838Z,0.00
2022-11-27T03:43:47.883Z,0.00
2022-11-27T03:44:47.734Z,0.00
2022-11-27T03:45:47.710Z,0.00
2022-11-27T03:46:53.447Z,0.00
2022-11-27T03:47:48.987Z,0.00
2022-11-27T03:48:47.542Z,0.00
2022-11-27T03:49:47.714Z,0.00
2022-11-27T03:50:47.448Z,0.00
2022-11-27T03:51:47.418Z,0.00
2022-11-27T03:52:47.408Z,0.00
2022-11-27T03:53:47.541Z,0.00
2022-11-27T03:54:47.267Z,0.00
2022-11-27T03:55:47.345Z,0.00
2022-11-27T03:56:47.166Z,0.00
2022-11-27T03:57:47.128Z,0.00
2022-11-27T03:58:48.277Z,0.00
2022-11-27T03:59:47.173Z,0.00
2022-11-27T04:00:46.980Z,0.00
2022-11-27T04:01:47.230Z,0.00
2022-11-27T04:02:46.885Z,0.00
2022-11-27T04:03:46.903Z,0.00
2022-11-27T04:04:47.014Z,0.00
2022-11-27T04:05:46.743Z,0.00
2022-11-27T04:06:46.819Z,0.00
2022-11-27T04:07:46.713Z,0.00
2022-11-27T04:08:47.863Z,0.00
2022-11-27T04:09:46.560Z,0.00
2022-11-27T04:10:46.851Z,0.00
2022-11-27T04:11:46.459Z,0.00
2022-11-27T04:12:46.658Z,0.00
2022-11-27T04:13:46.377Z,0.00
2022-11-27T04:14:46.465Z,0.00
2022-11-27T04:15:46.338Z,0.00
2022-11-27T04:16:47.508Z,0.00
2022-11-27T04:17:46.180Z,0.00
2022-11-27T04:18:46.310Z,0.00
2022-11-27T04:19:46.117Z,0.00
2022-11-27T04:20:46.303Z,0.00
2022-11-27T04:21:45.989Z,0.00
2022-11-27T04:22:46.317Z,0.00
2022-11-27T04:23:45.915Z,0.00
2022-11-27T04:24:46.135Z,0.00
2022-11-27T04:25:45.804Z,0.00
2022-11-27T04:26:46.965Z,0.00
2022-11-27T04:27:45.705Z,0.00
2022-11-27T04:28:45.951Z,0.00
2022-11-27T04:29:45.616Z,0.00
2022-11-27T04:30:45.761Z,0.00
2022-11-27T04:31:45.590Z,0.00
2022-11-27T04:32:45.570Z,0.00
2022-11-27T04:33:45.423Z,0.00
2022-11-27T04:34:45.794Z,0.00
2022-11-27T04:35:45.324Z,0.00
2022-11-27T04:36:46.421Z,0.00
2022-11-27T04:37:45.231Z,0.00
2022-11-27T04:38:45.188Z,0.00
2022-11-27T04:39:45.161Z,0.00
2022-11-27T04:40:45.221Z,0.00
2022-11-27T04:41:45.042Z,0.00
2022-11-27T04:42:45.237Z,0.00
2022-11-27T04:43:44.951Z,0.00
2022-11-27T04:44:44.902Z,0.00
2022-11-27T04:45:46.135Z,0.00
2022-11-27T04:46:45.111Z,0.00
2022-11-27T04:47:44.777Z,0.00
2022-11-27T04:48:44.872Z,0.00
2022-11-27T04:49:44.662Z,0.00
2022-11-27T04:50:44.616Z,0.00
2022-11-27T04:51:44.567Z,0.00
2022-11-27T04:52:44.692Z,0.00
2022-11-27T04:53:44.473Z,0.00
2022-11-27T04:54:44.705Z,0.00
2022-11-27T04:55:44.379Z,0.00
2022-11-27T04:56:44.335Z,0.00
2022-11-27T04:57:44.309Z,0.00
2022-11-27T04:58:44.329Z,0.00
2022-11-27T04:59:44.215Z,0.00
2022-11-27T05:00:44.395Z,0.00
2022-11-27T05:01:44.093Z,0.00
2022-11-27T05:02:44.118Z,0.00
2022-11-27T05:03:44.001Z,0.00
2022-11-27T05:04:44.169Z,0.00
2022-11-27T05:05:44.231Z,0.00
2022-11-27T05:06:43.982Z,0.00
2022-11-27T05:07:43.854Z,0.00
2022-11-27T05:08:43.785Z,0.00
2022-11-27T05:09:43.718Z,0.00
2022-11-27T05:10:43.903Z,0.00
2022-11-27T05:11:43.621Z,0.00
2022-11-27T05:12:43.711Z,0.00
2022-11-27T05:13:43.527Z,0.00
2022-11-27T05:14:43.805Z,0.00
2022-11-27T05:15:43.496Z,0.00
2022-11-27T05:16:43.538Z,0.00
2022-11-27T05:17:43.335Z,0.00
2022-11-27T05:18:43.556Z,0.00
2022-11-27T05:19:43.270Z,0.00
2022-11-27T05:20:43.196Z,0.00
2022-11-27T05:21:43.147Z,0.00
2022-11-27T05:22:43.377Z,0.00
2022-11-27T05:23:43.057Z,0.00
2022-11-27T05:24:43.269Z,0.00
2022-11-27T05:25:43.243Z,0.00
2022-11-27T05:26:42.912Z,0.00
2022-11-27T05:27:43.033Z,0.00
2022-11-27T05:28:42.815Z,0.00
2022-11-27T05:29:43.015Z,0.00
2022-11-27T05:30:42.720Z,0.00
2022-11-27T05:31:42.856Z,0.00
2022-11-27T05:32:42.628Z,0.00
2022-11-27T05:33:42.846Z,0.00
2022-11-27T05:34:42.753Z,0.00
2022-11-27T05:35:42.652Z,0.00
2022-11-27T05:36:42.436Z,0.00
2022-11-27T05:37:42.669Z,0.00
2022-11-27T05:38:42.340Z,0.00
2022-11-27T05:39:42.484Z,0.00
2022-11-27T05:40:42.246Z,0.00
2022-11-27T05:41:42.493Z,0.00
2022-11-27T05:42:42.160Z,0.00
2022-11-27T05:43:42.301Z,0.00
2022-11-27T05:44:42.364Z,0.00
2022-11-27T05:45:42.108Z,0.00
2022-11-27T05:46:41.998Z,0.00
2022-11-27T05:47:42.124Z,0.00
2022-11-27T05:48:42.186Z,0.00
2022-11-27T05:49:41.941Z,0.00
2022-11-27T05:50:41.781Z,0.00
2022-11-27T05:51:45.112Z,0.00
2022-11-27T05:52:41.674Z,0.00
2022-11-27T05:53:41.763Z,0.00
2022-11-27T05:54:41.883Z,0.00
2022-11-27T05:55:41.773Z,0.00
2022-11-27T05:56:41.489Z,0.00
2022-11-27T05:57:41.584Z,0.00
2022-11-27T05:58:41.390Z,0.00
2022-11-27T05:59:41.597Z,0.00
2022-11-27T06:03:47.441Z,0.00
2022-11-27T06:04:46.967Z,0.00
2022-11-27T06:05:47.175Z,0.00
2022-11-27T06:06:46.868Z,0.00
2022-11-27T06:07:46.934Z,0.00
2022-11-27T06:08:46.775Z,0.00
2022-11-27T06:09:46.996Z,0.00
2022-11-27T06:10:46.673Z,0.00
2022-11-27T06:11:46.808Z,0.00
2022-11-27T06:12:46.584Z,0.00
2022-11-27T06:13:46.667Z,0.00
2022-11-27T06:14:46.507Z,0.00
2022-11-27T06:15:47.862Z,4.00
2022-11-27T06:16:46.452Z,0.00
2022-11-27T06:17:46.646Z,4.00
2022-11-27T06:18:46.291Z,0.00
2022-11-27T06:19:46.253Z,4.00
2022-11-27T06:20:51.627Z,4.00
2022-11-27T06:21:46.169Z,4.00
2022-11-27T06:22:46.406Z,4.00
2022-11-27T06:23:46.050Z,8.00
2022-11-27T06:24:46.289Z,8.00
2022-11-27T06:25:46.094Z,12.00
2022-11-27T06:26:45.907Z,8.00
2022-11-27T06:27:46.107Z,16.00
2022-11-27T06:28:45.961Z,16.00
2022-11-27T06:29:45.913Z,20.00
2022-11-27T06:30:45.721Z,20.00
2022-11-27T06:31:45.708Z,24.00
2022-11-27T06:32:45.619Z,28.00
2022-11-27T06:33:45.764Z,36.00
2022-11-27T06:34:45.546Z,40.00
2022-11-27T06:35:45.755Z,44.00
2022-11-27T06:36:45.438Z,52.00
2022-11-27T06:37:45.382Z,64.00
2022-11-27T06:38:45.338Z,68.00
2022-11-27T06:39:45.585Z,68.00
2022-11-27T06:40:45.241Z,84.00
2022-11-27T06:41:45.388Z,96.00
2022-11-27T06:42:45.169Z,116.00
2022-11-27T06:43:45.107Z,120.00
2022-11-27T06:44:45.212Z,132.00
2022-11-27T06:45:53.016Z,156.00
2022-11-27T06:46:45.228Z,172.00
2022-11-27T06:47:54.504Z,184.00
2022-11-27T06:50:24.260Z,252.00
2022-11-27T06:51:23.987Z,288.00
2022-11-27T06:52:25.197Z,312.00
2022-11-27T06:53:23.870Z,328.00
2022-11-27T06:54:23.980Z,368.00
2022-11-27T06:55:23.988Z,368.00
2022-11-27T06:56:23.721Z,388.00
2022-11-27T06:57:24.207Z,424.00
2022-11-27T06:58:29.397Z,468.00
2022-11-27T06:59:23.816Z,504.00
2022-11-27T07:00:23.531Z,540.00
2022-11-27T07:01:23.541Z,660.00
2022-11-27T07:02:23.690Z,748.00
2022-11-27T07:03:23.561Z,756.00
2022-11-27T07:04:23.646Z,800.00
2022-11-27T07:05:23.296Z,868.00
2022-11-27T07:06:23.455Z,968.00
2022-11-27T07:07:23.238Z,992.00
2022-11-27T07:08:23.268Z,1056.00
2022-11-27T07:09:23.323Z,1088.00
2022-11-27T07:10:23.280Z,1112.00
2022-11-27T07:11:23.009Z,1192.00
2022-11-27T07:12:23.085Z,1200.00
2022-11-27T07:13:22.915Z,1244.00
2022-11-27T07:14:23.099Z,1328.00
2022-11-27T07:15:22.837Z,1476.00
2022-11-27T07:16:22.988Z,1504.00
2022-11-27T07:17:22.722Z,1528.00
2022-11-27T07:18:22.924Z,1608.00
2022-11-27T07:19:22.983Z,1536.00
2022-11-27T07:20:22.735Z,1492.00
2022-11-27T07:21:22.525Z,1500.00
2022-11-27T07:22:22.753Z,1572.00
2022-11-27T07:23:22.429Z,1568.00
2022-11-27T07:24:22.563Z,1704.00
2022-11-27T07:25:22.378Z,1712.00
2022-11-27T07:26:22.570Z,1752.00
2022-11-27T07:27:22.244Z,1880.00
2022-11-27T07:28:22.390Z,1952.00
2022-11-27T07:29:22.147Z,2044.00
2022-11-27T07:30:22.413Z,2156.00
2022-11-27T07:31:22.280Z,2096.00
2022-11-27T07:32:22.209Z,2168.00
2022-11-27T07:33:21.961Z,2296.00
2022-11-27T07:34:22.222Z,2296.00
2022-11-27T07:35:21.861Z,2456.00
2022-11-27T07:36:22.037Z,2676.00
2022-11-27T07:37:21.801Z,2632.00
2022-11-27T07:38:21.844Z,2548.00
2022-11-27T07:39:39.365Z,2528.00
2022-11-27T07:40:21.625Z,2452.00
2022-11-27T07:41:22.067Z,2404.00
2022-11-27T07:42:38.443Z,2476.00
2022-11-27T07:43:21.474Z,2392.00
2022-11-27T07:44:21.682Z,2528.00
2022-11-27T07:45:21.456Z,2580.00
2022-11-27T07:46:21.556Z,2556.00
2022-11-27T07:47:21.325Z,2608.00
2022-11-27T07:48:21.240Z,2644.00
2022-11-27T07:49:21.198Z,2808.00
2022-11-27T07:50:21.214Z,2920.00
2022-11-27T07:51:21.271Z,2776.00
2022-11-27T07:52:21.231Z,2848.00
2022-11-27T07:53:21.007Z,2776.00
2022-11-27T07:54:20.959Z,2732.00
2022-11-27T07:55:20.907Z,2660.00
2022-11-27T07:56:21.122Z,2540.00
2022-11-27T07:57:20.843Z,2452.00
2022-11-27T07:58:20.963Z,2444.00
2022-11-27T07:59:20.716Z,2492.00
2022-11-27T08:00:20.672Z,2436.00
2022-11-27T08:01:20.655Z,2480.00
2022-11-27T08:02:20.692Z,2724.00
2022-11-27T08:03:20.784Z,3100.00
2022-11-27T08:04:20.736Z,3144.00
2022-11-27T08:05:20.506Z,3168.00
2022-11-27T08:06:20.390Z,3516.00
2022-11-27T08:07:20.562Z,4004.00
2022-11-27T08:08:20.385Z,3556.00
2022-11-27T08:09:20.330Z,3556.00
2022-11-27T08:10:20.193Z,3240.00
2022-11-27T08:11:20.348Z,3204.00
2022-11-27T08:12:20.104Z,3368.00
2022-11-27T08:13:20.153Z,3668.00
2022-11-27T08:14:20.211Z,4204.00
2022-11-27T08:15:20.168Z,3960.00
2022-11-27T08:16:19.987Z,3620.00
2022-11-27T08:17:19.976Z,3944.00
2022-11-27T08:18:19.818Z,4512.00
2022-11-27T08:19:19.772Z,3876.00
2022-11-27T08:20:19.792Z,3816.00
2022-11-27T08:21:19.678Z,4228.00
2022-11-27T08:22:19.808Z,4664.00
2022-11-27T08:23:19.871Z,4864.00
2022-11-27T08:24:19.538Z,5132.00
2022-11-27T08:25:19.630Z,5340.00
2022-11-27T08:26:19.445Z,4672.00
2022-11-27T08:27:19.439Z,4124.00
2022-11-27T08:28:19.356Z,3828.00
2022-11-27T08:29:19.453Z,4032.00
2022-11-27T08:30:19.457Z,4312.00
2022-11-27T08:31:19.248Z,3832.00
2022-11-27T08:32:19.264Z,3952.00
2022-11-27T08:33:19.326Z,4200.00
2022-11-27T08:34:19.289Z,5096.00
2022-11-27T08:35:19.040Z,4300.00
2022-11-27T08:36:18.971Z,3952.00
2022-11-27T08:37:19.104Z,4148.00
2022-11-27T08:38:18.878Z,5288.00
2022-11-27T08:39:18.917Z,6512.00
2022-11-27T08:40:18.782Z,7464.00
2022-11-27T08:41:27.342Z,8588.00
2022-11-27T08:42:28.609Z,8352.00
2022-11-27T08:43:26.907Z,9560.00
2022-11-27T08:44:18.596Z,10452.00
2022-11-27T08:45:18.556Z,10076.00
2022-11-27T08:46:18.571Z,10448.00
2022-11-27T08:47:18.459Z,11912.00
2022-11-27T08:48:18.404Z,12072.00
2022-11-27T08:49:18.355Z,11912.00
2022-11-27T08:50:18.309Z,12484.00
2022-11-27T08:51:18.262Z,13288.00
2022-11-27T08:52:18.217Z,10684.00
2022-11-27T08:53:18.192Z,9448.00
2022-11-27T08:54:18.121Z,12796.00
2022-11-27T08:55:18.075Z,12128.00
2022-11-27T08:56:18.026Z,9692.00
2022-11-27T08:57:26.468Z,9664.00
2022-11-27T08:58:18.023Z,9704.00
2022-11-27T08:59:17.887Z,10680.00
2022-11-27T09:00:17.847Z,10928.00
2022-11-27T09:01:17.922Z,9808.00
2022-11-27T09:02:17.755Z,10612.00
2022-11-27T09:03:18.068Z,10612.00
2022-11-27T09:04:17.700Z,9760.00
2022-11-27T09:05:17.881Z,10352.00
2022-11-27T09:06:17.879Z,11136.00
2022-11-27T09:07:17.556Z,13180.00
2022-11-27T09:08:17.690Z,12956.00
2022-11-27T09:09:17.427Z,13168.00
2022-11-27T09:10:17.504Z,12312.00
2022-11-27T09:11:18.052Z,13908.00
2022-11-27T09:12:17.342Z,13664.00
2022-11-27T09:13:17.313Z,16544.00
2022-11-27T09:14:17.194Z,21472.00
2022-11-27T09:15:17.335Z,19360.00
2022-11-27T09:16:17.140Z,21216.00
2022-11-27T09:17:17.143Z,18816.00
2022-11-27T09:18:17.237Z,15544.00
2022-11-27T09:19:17.155Z,14852.00
2022-11-27T09:20:16.912Z,17088.00
2022-11-27T09:21:16.964Z,19552.00
2022-11-27T09:22:21.993Z,16768.00
2022-11-27T09:23:16.992Z,19584.00
2022-11-27T09:24:16.778Z,22944.00
2022-11-27T09:25:16.705Z,20320.00
2022-11-27T09:26:16.803Z,20416.00
2022-11-27T09:27:16.598Z,20800.00
2022-11-27T09:28:16.616Z,21984.00
2022-11-27T09:29:16.500Z,19616.00
2022-11-27T09:30:16.843Z,20544.00
2022-11-27T09:31:16.419Z,19776.00
2022-11-27T09:32:16.523Z,17536.00
2022-11-27T09:33:16.333Z,16480.00
2022-11-27T09:34:16.494Z,17344.00
2022-11-27T09:35:16.301Z,29344.00
2022-11-27T09:36:16.477Z,24096.00
2022-11-27T09:37:16.162Z,18816.00
2022-11-27T09:38:16.294Z,17952.00
2022-11-27T09:39:16.058Z,20192.00
2022-11-27T09:40:16.079Z,19968.00
2022-11-27T09:41:15.966Z,26688.00
2022-11-27T09:42:16.379Z,33312.00
2022-11-27T09:43:16.105Z,33504.00
2022-11-27T09:44:15.844Z,38624.00
2022-11-27T09:45:15.933Z,40096.00
2022-11-27T09:46:15.878Z,45408.00
2022-11-27T09:47:15.960Z,46176.00
2022-11-27T09:48:15.674Z,45024.00
2022-11-27T09:49:15.634Z,42240.00
2022-11-27T09:50:15.740Z,43200.00
2022-11-27T09:51:15.509Z,41856.00
2022-11-27T09:52:15.819Z,42912.00
2022-11-27T09:53:15.447Z,43680.00
2022-11-27T09:54:16.656Z,42784.00
2022-11-27T09:55:15.592Z,43008.00
2022-11-27T09:56:15.303Z,37696.00
2022-11-27T09:57:15.425Z,41440.00
2022-11-27T09:58:15.255Z,31648.00
2022-11-27T09:59:15.401Z,20512.00
2022-11-27T10:00:15.182Z,22048.00
2022-11-27T10:01:15.138Z,25696.00
2022-11-27T10:02:15.163Z,26080.00
2022-11-27T10:03:15.285Z,28576.00
2022-11-27T10:04:15.084Z,37952.00
2022-11-27T10:05:16.494Z,46592.00
2022-11-27T10:06:14.920Z,46048.00
2022-11-27T10:07:14.940Z,54624.00
2022-11-27T10:08:14.864Z,49984.00
2022-11-27T10:09:14.875Z,47520.00
2022-11-27T10:10:14.789Z,45152.00
2022-11-27T10:11:14.872Z,50816.00
2022-11-27T10:12:14.631Z,47072.00
2022-11-27T10:13:14.792Z,40928.00
2022-11-27T10:14:15.713Z,35840.00
2022-11-27T10:15:14.508Z,34560.00
2022-11-27T10:16:14.752Z,30784.00
2022-11-27T10:17:14.451Z,23136.00
2022-11-27T10:18:14.546Z,21888.00
2022-11-27T10:19:14.755Z,20960.00
2022-11-27T10:20:14.353Z,20128.00
2022-11-27T10:21:14.349Z,19360.00
2022-11-27T10:22:16.617Z,18816.00
2022-11-27T10:23:14.375Z,18336.00
2022-11-27T10:24:14.152Z,18048.00
2022-11-27T10:25:14.280Z,17952.00
2022-11-27T10:26:14.393Z,17856.00
2022-11-27T10:27:14.059Z,17760.00
2022-11-27T10:28:14.100Z,17632.00
2022-11-27T10:29:13.969Z,17472.00
2022-11-27T10:30:14.121Z,17344.00
2022-11-27T10:31:14.005Z,17184.00
2022-11-27T10:32:33.016Z,17056.00
2022-11-27T10:33:13.825Z,16864.00
2022-11-27T10:34:13.952Z,16564.00
2022-11-27T10:35:13.938Z,16456.00
2022-11-27T10:36:13.828Z,16376.00
2022-11-27T10:37:13.590Z,16344.00
2022-11-27T10:38:13.638Z,16352.00
2022-11-27T10:39:13.601Z,16552.00
2022-11-27T10:40:13.656Z,17088.00
2022-11-27T10:41:34.329Z,17472.00
2022-11-27T10:42:13.387Z,17920.00
2022-11-27T10:43:13.492Z,18496.00
2022-11-27T10:44:13.322Z,19008.00
2022-11-27T10:45:13.645Z,19232.00
2022-11-27T10:46:13.309Z,19232.00
2022-11-27T10:47:13.345Z,19104.00
2022-11-27T10:48:13.210Z,19008.00
2022-11-27T10:49:13.067Z,19968.00
2022-11-27T10:50:13.153Z,40352.00
2022-11-27T10:51:12.987Z,23424.00
2022-11-27T10:52:13.160Z,22464.00
2022-11-27T10:53:12.906Z,22560.00
2022-11-27T10:54:13.161Z,59200.00
2022-11-27T10:55:12.989Z,57088.00
2022-11-27T10:56:12.755Z,56224.00
2022-11-27T10:57:12.970Z,41344.00
2022-11-27T10:58:12.708Z,58144.00
2022-11-27T10:59:12.777Z,57632.00
2022-11-27T11:00:12.607Z,47328.00
2022-11-27T11:01:12.570Z,43872.00
2022-11-27T11:02:12.629Z,39648.00
2022-11-27T11:03:12.475Z,36352.00
2022-11-27T11:04:36.245Z,45856.00
2022-11-27T11:05:34.642Z,34208.00
2022-11-27T11:06:20.837Z,38400.00
2022-11-27T11:07:12.468Z,35872.00
2022-11-27T11:08:12.256Z,40320.00
2022-11-27T11:09:12.428Z,44992.00
2022-11-27T11:10:12.181Z,40192.00
2022-11-27T11:11:12.290Z,36224.00
2022-11-27T11:12:12.268Z,39136.00
2022-11-27T11:13:12.080Z,34752.00
2022-11-27T11:14:12.266Z,31712.00
2022-11-27T11:15:12.012Z,30144.00
2022-11-27T11:16:14.740Z,29632.00
2022-11-27T11:17:11.925Z,30944.00
2022-11-27T11:18:11.991Z,27232.00
2022-11-27T11:19:19.566Z,25568.00
2022-11-27T11:20:11.943Z,24800.00
2022-11-27T11:21:11.727Z,24160.00
2022-11-27T11:22:14.577Z,26496.00
2022-11-27T11:23:11.670Z,28576.00
2022-11-27T11:24:11.940Z,27296.00
2022-11-27T11:25:11.753Z,28672.00
2022-11-27T11:26:11.595Z,26528.00
2022-11-27T11:27:11.561Z,26304.00
2022-11-27T11:28:11.645Z,39584.00
2022-11-27T11:29:12.579Z,36544.00
2022-11-27T11:30:11.356Z,30464.00
2022-11-27T11:31:11.642Z,45056.00
2022-11-27T11:32:11.326Z,50688.00
2022-11-27T11:33:11.378Z,34432.00
2022-11-27T11:34:11.255Z,49824.00
2022-11-27T11:35:11.143Z,48736.00
2022-11-27T11:36:11.120Z,43968.00
2022-11-27T11:37:32.302Z,47296.00
2022-11-27T11:38:11.033Z,46816.00
2022-11-27T11:39:11.220Z,44256.00
2022-11-27T11:40:14.820Z,46016.00
2022-11-27T11:41:11.105Z,45024.00
2022-11-27T11:42:10.863Z,43456.00
2022-11-27T11:43:10.998Z,46304.00
2022-11-27T11:44:10.782Z,44128.00
2022-11-27T11:45:10.865Z,42848.00
2022-11-27T11:46:10.760Z,44704.00
2022-11-27T11:47:10.695Z,43872.00
2022-11-27T11:48:11.082Z,44128.00
2022-11-27T11:49:10.755Z,45216.00
2022-11-27T11:50:10.692Z,45120.00
2022-11-27T11:51:10.513Z,43744.00
2022-11-27T11:52:10.476Z,45088.00
2022-11-27T11:53:10.450Z,43456.00
2022-11-27T11:54:10.711Z,45056.00
2022-11-27T11:55:10.369Z,42912.00
2022-11-27T11:56:10.522Z,42208.00
2022-11-27T11:57:10.289Z,39840.00
2022-11-27T11:58:10.362Z,34048.00
2022-11-27T11:59:10.284Z,44128.00
2022-11-27T12:00:10.565Z,43328.00
2022-11-27T12:01:26.383Z,43392.00
2022-11-27T12:02:10.379Z,43008.00
2022-11-27T12:03:10.065Z,43104.00
2022-11-27T12:04:10.070Z,41568.00
2022-11-27T12:05:10.049Z,41280.00
2022-11-27T12:06:10.187Z,41760.00
2022-11-27T12:07:09.904Z,42304.00
2022-11-27T12:08:10.147Z,44064.00
2022-11-27T12:09:09.851Z,43360.00
2022-11-27T12:10:09.797Z,44192.00
2022-11-27T12:11:10.135Z,43392.00
2022-11-27T12:12:09.732Z,43392.00
2022-11-27T12:13:09.983Z,46464.00
2022-11-27T12:14:09.658Z,45088.00
2022-11-27T12:15:09.732Z,46176.00
2022-11-27T12:16:09.771Z,47008.00
2022-11-27T12:17:09.531Z,45920.00
2022-11-27T12:18:09.801Z,37696.00
2022-11-27T12:19:09.456Z,32864.00
2022-11-27T12:20:09.606Z,28768.00
2022-11-27T12:21:09.673Z,30016.00
2022-11-27T12:22:09.340Z,31008.00
2022-11-27T12:23:09.322Z,27424.00
2022-11-27T12:24:09.405Z,31840.00
2022-11-27T12:25:09.276Z,28288.00
2022-11-27T12:26:09.633Z,32576.00
2022-11-27T12:27:09.159Z,43360.00
2022-11-27T12:28:09.131Z,50016.00
2022-11-27T12:29:09.225Z,39808.00
2022-11-27T12:30:09.045Z,27968.00
2022-11-27T12:31:09.305Z,26848.00
2022-11-27T12:32:09.118Z,25696.00
2022-11-27T12:33:09.055Z,26016.00
2022-11-27T12:34:08.888Z,31328.00
2022-11-27T12:35:09.078Z,28640.00
2022-11-27T12:36:08.805Z,28224.00
2022-11-27T12:37:13.594Z,27648.00
2022-11-27T12:38:08.789Z,26656.00
2022-11-27T12:39:08.904Z,25312.00
2022-11-27T12:40:08.682Z,23456.00